createdAt,value
2018-09-05T00:00:38.851Z,4.00
2018-09-05T00:01:38.871Z,4.00
2018-09-05T00:02:39.092Z,4.00
2018-09-05T00:03:38.898Z,4.00
2018-09-05T00:04:38.919Z,4.00
2018-09-05T00:05:38.935Z,4.00
2018-09-05T00:06:38.960Z,4.00
2018-09-05T00:07:39.012Z,4.00
2018-09-05T00:08:38.991Z,4.00
2018-09-05T00:09:39.012Z,4.00
2018-09-05T00:10:39.024Z,4.00
2018-09-05T00:11:39.047Z,4.00
2018-09-05T00:12:39.056Z,4.00
2018-09-05T00:13:39.079Z,4.00
2018-09-05T00:14:39.291Z,4.00
2018-09-05T00:15:39.312Z,4.00
2018-09-05T00:16:39.324Z,4.00
2018-09-05T00:17:39.151Z,4.00
2018-09-05T00:18:39.164Z,4.00
2018-09-05T00:19:39.180Z,4.00
2018-09-05T00:20:39.403Z,4.00
2018-09-05T00:21:39.213Z,4.00
2018-09-05T00:22:39.228Z,4.00
2018-09-05T00:23:39.252Z,4.00
2018-09-05T00:24:39.265Z,4.00
2018-09-05T00:25:39.288Z,4.00
2018-09-05T00:26:39.381Z,4.00
2018-09-05T00:27:39.320Z,4.00
2018-09-05T00:28:39.332Z,4.00
2018-09-05T00:29:39.353Z,4.00
2018-09-05T00:30:39.367Z,4.00
2018-09-05T00:31:39.588Z,4.00
2018-09-05T00:32:39.494Z,4.00
2018-09-05T00:33:39.420Z,4.00
2018-09-05T00:34:39.442Z,4.00
2018-09-05T00:35:39.464Z,4.00
2018-09-05T00:36:39.472Z,4.00
2018-09-05T00:37:39.493Z,4.00
2018-09-05T00:38:39.537Z,4.00
2018-09-05T00:39:39.529Z,4.00
2018-09-05T00:40:39.549Z,4.00
2018-09-05T00:41:39.565Z,4.00
2018-09-05T00:42:39.576Z,4.00
2018-09-05T00:43:39.797Z,4.00
2018-09-05T00:44:39.631Z,4.00
2018-09-05T00:45:39.634Z,4.00
2018-09-05T00:46:39.649Z,4.00
2018-09-05T00:47:39.664Z,4.00
2018-09-05T00:48:39.681Z,4.00
2018-09-05T00:49:39.909Z,4.00
2018-09-05T00:50:39.712Z,4.00
2018-09-05T00:51:39.736Z,4.00
2018-09-05T00:52:39.744Z,4.00
2018-09-05T00:53:39.769Z,4.00
2018-09-05T00:54:39.789Z,4.00
2018-09-05T00:55:39.997Z,4.00
2018-09-05T00:56:39.813Z,4.00
2018-09-05T00:57:39.828Z,4.00
2018-09-05T00:58:39.848Z,4.00
2018-09-05T00:59:39.875Z,4.00
2018-09-05T01:00:39.878Z,4.00
2018-09-05T01:01:39.905Z,4.00
2018-09-05T01:02:39.921Z,4.00
2018-09-05T01:03:39.938Z,4.00
2018-09-05T01:04:39.949Z,4.00
2018-09-05T01:05:39.970Z,4.00
2018-09-05T01:06:39.986Z,4.00
2018-09-05T01:07:40.201Z,4.00
2018-09-05T01:08:40.017Z,4.00
2018-09-05T01:09:40.097Z,4.00
2018-09-05T01:10:40.057Z,4.00
2018-09-05T01:11:40.073Z,4.00
2018-09-05T01:12:40.085Z,4.00
2018-09-05T01:13:40.110Z,4.00
2018-09-05T01:14:40.122Z,4.00
2018-09-05T01:15:40.135Z,4.00
2018-09-05T01:16:40.149Z,4.00
2018-09-05T01:17:40.170Z,4.00
2018-09-05T01:18:40.193Z,4.00
2018-09-05T01:19:40.210Z,4.00
2018-09-05T01:20:40.223Z,4.00
2018-09-05T01:21:40.241Z,4.00
2018-09-05T01:22:40.259Z,4.00
2018-09-05T01:23:40.269Z,4.00
2018-09-05T01:24:40.290Z,4.00
2018-09-05T01:25:40.310Z,4.00
2018-09-05T01:26:40.332Z,4.00
2018-09-05T01:27:40.338Z,4.00
2018-09-05T01:28:40.560Z,4.00
2018-09-05T01:29:40.573Z,4.00
2018-09-05T01:30:40.398Z,4.00
2018-09-05T01:31:40.413Z,4.00
2018-09-05T01:32:40.433Z,4.00
2018-09-05T01:33:40.442Z,4.00
2018-09-05T01:34:40.462Z,4.00
2018-09-05T01:35:40.478Z,4.00
2018-09-05T01:36:40.495Z,4.00
2018-09-05T01:37:40.710Z,4.00
2018-09-05T01:38:40.533Z,4.00
2018-09-05T01:39:40.546Z,4.00
2018-09-05T01:40:40.565Z,4.00
2018-09-05T01:41:40.670Z,4.00
2018-09-05T01:42:40.599Z,4.00
2018-09-05T01:43:40.823Z,4.00
2018-09-05T01:44:40.634Z,4.00
2018-09-05T01:45:40.653Z,4.00
2018-09-05T01:46:40.671Z,4.00
2018-09-05T01:47:40.711Z,4.00
2018-09-05T01:48:40.700Z,4.00
2018-09-05T01:49:40.920Z,4.00
2018-09-05T01:50:40.739Z,4.00
2018-09-05T01:51:40.754Z,4.00
2018-09-05T01:52:40.774Z,4.00
2018-09-05T01:53:40.847Z,4.00
2018-09-05T01:54:40.810Z,4.00
2018-09-05T01:55:41.021Z,4.00
2018-09-05T01:56:40.842Z,4.00
2018-09-05T01:57:40.854Z,4.00
2018-09-05T01:58:40.879Z,4.00
2018-09-05T01:59:40.892Z,4.00
2018-09-05T02:00:40.903Z,4.00
2018-09-05T02:01:40.928Z,4.00
2018-09-05T02:02:40.942Z,4.00
2018-09-05T02:03:40.955Z,4.00
2018-09-05T02:04:40.970Z,4.00
2018-09-05T02:05:41.067Z,4.00
2018-09-05T02:06:41.007Z,4.00
2018-09-05T02:07:41.226Z,4.00
2018-09-05T02:08:41.047Z,4.00
2018-09-05T02:09:41.058Z,4.00
2018-09-05T02:10:41.075Z,4.00
2018-09-05T02:11:41.123Z,4.00
2018-09-05T02:12:41.120Z,4.00
2018-09-05T02:13:41.326Z,4.00
2018-09-05T02:14:41.146Z,4.00
2018-09-05T02:15:41.163Z,4.00
2018-09-05T02:16:41.378Z,4.00
2018-09-05T02:17:41.394Z,4.00
2018-09-05T02:18:41.215Z,4.00
2018-09-05T02:19:41.430Z,4.00
2018-09-05T02:20:41.245Z,4.00
2018-09-05T02:21:41.265Z,4.00
2018-09-05T02:22:41.279Z,4.00
2018-09-05T02:23:41.294Z,4.00
2018-09-05T02:24:41.314Z,4.00
2018-09-05T02:25:41.529Z,4.00
2018-09-05T02:26:41.347Z,4.00
2018-09-05T02:27:41.403Z,4.00
2018-09-05T02:28:41.380Z,4.00
2018-09-05T02:29:41.394Z,4.00
2018-09-05T02:30:41.419Z,4.00
2018-09-05T02:31:41.435Z,4.00
2018-09-05T02:32:41.447Z,4.00
2018-09-05T02:33:41.466Z,4.00
2018-09-05T02:34:41.486Z,4.00
2018-09-05T02:35:41.503Z,4.00
2018-09-05T02:36:41.518Z,4.00
2018-09-05T02:37:41.526Z,4.00
2018-09-05T02:38:41.546Z,4.00
2018-09-05T02:39:41.563Z,4.00
2018-09-05T02:40:41.629Z,4.00
2018-09-05T02:41:41.595Z,4.00
2018-09-05T02:42:41.614Z,4.00
2018-09-05T02:43:41.631Z,4.00
2018-09-05T02:44:41.651Z,4.00
2018-09-05T02:45:41.662Z,4.00
2018-09-05T02:46:41.684Z,4.00
2018-09-05T02:47:41.702Z,4.00
2018-09-05T02:48:41.767Z,4.00
2018-09-05T02:49:41.934Z,4.00
2018-09-05T02:50:41.751Z,4.00
2018-09-05T02:51:41.971Z,4.00
2018-09-05T02:52:41.982Z,4.00
2018-09-05T02:53:41.803Z,4.00
2018-09-05T02:54:41.861Z,4.00
2018-09-05T02:55:41.835Z,4.00
2018-09-05T02:56:41.846Z,4.00
2018-09-05T02:57:41.868Z,4.00
2018-09-05T02:58:41.887Z,4.00
2018-09-05T02:59:41.899Z,4.00
2018-09-05T03:00:41.941Z,4.00
2018-09-05T03:02:49.566Z,4.00
2018-09-05T03:03:41.971Z,4.00
2018-09-05T03:04:41.986Z,4.00
2018-09-05T03:05:41.999Z,4.00
2018-09-05T03:06:42.023Z,4.00
2018-09-05T03:07:42.038Z,4.00
2018-09-05T03:08:42.108Z,4.00
2018-09-05T03:09:42.067Z,4.00
2018-09-05T03:10:42.091Z,4.00
2018-09-05T03:11:42.102Z,4.00
2018-09-05T03:12:42.115Z,4.00
2018-09-05T03:13:42.144Z,4.00
2018-09-05T03:14:42.155Z,4.00
2018-09-05T03:15:42.166Z,4.00
2018-09-05T03:16:42.182Z,4.00
2018-09-05T03:17:42.203Z,4.00
2018-09-05T03:18:42.215Z,4.00
2018-09-05T03:19:42.235Z,4.00
2018-09-05T03:20:42.251Z,4.00
2018-09-05T03:21:42.270Z,4.00
2018-09-05T03:22:42.286Z,4.00
2018-09-05T03:23:42.307Z,4.00
2018-09-05T03:24:42.318Z,4.00
2018-09-05T03:25:42.359Z,4.00
2018-09-05T03:26:42.356Z,4.00
2018-09-05T03:27:42.370Z,4.00
2018-09-05T03:28:42.391Z,4.00
2018-09-05T03:29:42.402Z,4.00
2018-09-05T03:30:42.423Z,4.00
2018-09-05T03:31:42.512Z,4.00
2018-09-05T03:32:42.599Z,4.00
2018-09-05T03:33:42.474Z,4.00
2018-09-05T03:34:42.490Z,4.00
2018-09-05T03:35:42.511Z,4.00
2018-09-05T03:36:42.524Z,4.00
2018-09-05T03:37:42.563Z,4.00
2018-09-05T03:38:42.565Z,4.00
2018-09-05T03:39:42.574Z,4.00
2018-09-05T03:40:42.591Z,4.00
2018-09-05T03:41:42.613Z,4.00
2018-09-05T03:42:42.628Z,4.00
2018-09-05T03:43:42.691Z,4.00
2018-09-05T03:44:42.663Z,4.00
2018-09-05T03:45:42.675Z,4.00
2018-09-05T03:46:42.695Z,4.00
2018-09-05T03:47:42.711Z,4.00
2018-09-05T03:48:42.728Z,4.00
2018-09-05T03:49:42.891Z,4.00
2018-09-05T03:50:42.765Z,4.00
2018-09-05T03:51:42.778Z,4.00
2018-09-05T03:52:42.795Z,4.00
2018-09-05T03:53:42.810Z,4.00
2018-09-05T03:54:42.831Z,4.00
2018-09-05T03:55:42.926Z,4.00
2018-09-05T03:56:42.866Z,4.00
2018-09-05T03:57:42.883Z,4.00
2018-09-05T03:58:42.895Z,4.00
2018-09-05T03:59:42.916Z,4.00
2018-09-05T04:00:42.931Z,4.00
2018-09-05T04:01:42.983Z,4.00
2018-09-05T04:02:42.968Z,4.00
2018-09-05T04:03:42.983Z,4.00
2018-09-05T04:04:42.998Z,4.00
2018-09-05T04:05:43.017Z,4.00
2018-09-05T04:06:43.029Z,4.00
2018-09-05T04:07:43.147Z,4.00
2018-09-05T04:08:43.063Z,4.00
2018-09-05T04:09:43.085Z,4.00
2018-09-05T04:10:43.094Z,4.00
2018-09-05T04:11:43.122Z,4.00
2018-09-05T04:12:43.130Z,4.00
2018-09-05T04:13:43.146Z,4.00
2018-09-05T04:14:43.167Z,4.00
2018-09-05T04:15:43.182Z,4.00
2018-09-05T04:16:43.199Z,4.00
2018-09-05T04:17:43.210Z,4.00
2018-09-05T04:18:43.232Z,4.00
2018-09-05T04:19:43.250Z,4.00
2018-09-05T04:20:43.274Z,4.00
2018-09-05T04:21:43.306Z,4.00
2018-09-05T04:22:43.302Z,4.00
2018-09-05T04:23:43.318Z,4.00
2018-09-05T04:24:43.334Z,4.00
2018-09-05T04:25:43.559Z,4.00
2018-09-05T04:26:43.566Z,4.00
2018-09-05T04:27:43.387Z,4.00
2018-09-05T04:28:43.410Z,4.00
2018-09-05T04:29:43.493Z,4.00
2018-09-05T04:30:43.438Z,4.00
2018-09-05T04:31:43.464Z,4.00
2018-09-05T04:32:43.547Z,4.00
2018-09-05T04:33:43.493Z,4.00
2018-09-05T04:34:43.511Z,4.00
2018-09-05T04:35:43.519Z,4.00
2018-09-05T04:36:43.534Z,4.00
2018-09-05T04:37:43.558Z,4.00
2018-09-05T04:38:43.639Z,4.00
2018-09-05T04:39:43.587Z,4.00
2018-09-05T04:40:43.606Z,4.00
2018-09-05T04:41:43.628Z,4.00
2018-09-05T04:42:43.634Z,4.00
2018-09-05T04:43:43.659Z,4.00
2018-09-05T04:44:43.699Z,4.00
2018-09-05T04:45:43.690Z,4.00
2018-09-05T04:46:43.706Z,4.00
2018-09-05T04:47:43.718Z,4.00
2018-09-05T04:48:43.734Z,4.00
2018-09-05T04:49:43.761Z,4.00
2018-09-05T04:50:43.771Z,4.00
2018-09-05T04:51:43.790Z,4.00
2018-09-05T04:52:43.845Z,4.00
2018-09-05T04:53:43.822Z,4.00
2018-09-05T04:54:43.838Z,4.00
2018-09-05T04:55:43.858Z,4.00
2018-09-05T04:56:43.913Z,4.00
2018-09-05T04:57:43.891Z,4.00
2018-09-05T04:58:43.910Z,4.00
2018-09-05T04:59:43.922Z,4.00
2018-09-05T05:00:43.947Z,4.00
2018-09-05T05:01:43.963Z,4.00
2018-09-05T05:02:44.010Z,4.00
2018-09-05T05:03:44.000Z,4.00
2018-09-05T05:04:44.011Z,4.00
2018-09-05T05:05:44.064Z,4.00
2018-09-05T05:06:44.053Z,4.00
2018-09-05T05:07:44.174Z,4.00
2018-09-05T05:08:44.078Z,4.00
2018-09-05T05:09:44.098Z,4.00
2018-09-05T05:10:44.110Z,4.00
2018-09-05T05:11:44.131Z,4.00
2018-09-05T05:12:44.150Z,4.00
2018-09-05T05:13:44.167Z,4.00
2018-09-05T05:14:44.187Z,4.00
2018-09-05T05:15:44.198Z,4.00
2018-09-05T05:16:44.218Z,4.00
2018-09-05T05:17:44.234Z,4.00
2018-09-05T05:18:44.250Z,4.00
2018-09-05T05:19:44.271Z,4.00
2018-09-05T05:20:44.293Z,4.00
2018-09-05T05:21:44.345Z,4.00
2018-09-05T05:22:44.319Z,4.00
2018-09-05T05:23:44.338Z,4.00
2018-09-05T05:24:44.350Z,4.00
2018-09-05T05:25:44.375Z,4.00
2018-09-05T05:26:44.386Z,4.00
2018-09-05T05:27:44.489Z,4.00
2018-09-05T05:28:44.422Z,4.00
2018-09-05T05:29:44.437Z,4.00
2018-09-05T05:30:44.449Z,4.00
2018-09-05T05:31:44.469Z,4.00
2018-09-05T05:32:44.622Z,4.00
2018-09-05T05:33:44.706Z,4.00
2018-09-05T05:34:44.518Z,4.00
2018-09-05T05:35:44.537Z,4.00
2018-09-05T05:36:44.553Z,4.00
2018-09-05T05:37:44.570Z,4.00
2018-09-05T05:38:44.593Z,4.00
2018-09-05T05:39:44.606Z,0.00
2018-09-05T05:40:44.622Z,0.00
2018-09-05T05:41:44.639Z,0.00
2018-09-05T05:42:44.657Z,0.00
2018-09-05T05:43:44.676Z,0.00
2018-09-05T05:44:44.688Z,4.00
2018-09-05T05:45:44.709Z,4.00
2018-09-05T05:46:44.758Z,4.00
2018-09-05T05:47:44.742Z,4.00
2018-09-05T05:48:44.757Z,4.00
2018-09-05T05:49:44.777Z,8.00
2018-09-05T05:50:44.794Z,4.00
2018-09-05T05:51:44.815Z,4.00
2018-09-05T05:52:44.873Z,8.00
2018-09-05T05:53:44.841Z,8.00
2018-09-05T05:54:44.860Z,8.00
2018-09-05T05:55:44.873Z,12.00
2018-09-05T05:56:44.897Z,16.00
2018-09-05T05:57:44.913Z,16.00
2018-09-05T05:58:44.961Z,20.00
2018-09-05T05:59:44.941Z,24.00
2018-09-05T06:00:44.981Z,28.00
2018-09-05T06:01:44.976Z,28.00
2018-09-05T06:02:44.992Z,32.00
2018-09-05T06:03:45.012Z,40.00
2018-09-05T06:04:45.059Z,44.00
2018-09-05T06:05:45.050Z,52.00
2018-09-05T06:06:45.061Z,60.00
2018-09-05T06:07:45.088Z,64.00
2018-09-05T06:08:45.093Z,76.00
2018-09-05T06:09:45.112Z,84.00
2018-09-05T06:10:45.133Z,92.00
2018-09-05T06:11:45.147Z,100.00
2018-09-05T06:12:45.161Z,112.00
2018-09-05T06:13:45.181Z,120.00
2018-09-05T06:14:45.197Z,136.00
2018-09-05T06:15:45.217Z,144.00
2018-09-05T06:16:45.229Z,164.00
2018-09-05T06:17:45.444Z,172.00
2018-09-05T06:18:45.270Z,188.00
2018-09-05T06:19:45.287Z,204.00
2018-09-05T06:20:45.296Z,216.00
2018-09-05T06:21:45.308Z,232.00
2018-09-05T06:22:45.325Z,252.00
2018-09-05T06:23:45.345Z,268.00
2018-09-05T06:24:45.360Z,284.00
2018-09-05T06:25:45.376Z,300.00
2018-09-05T06:26:45.396Z,320.00
2018-09-05T06:27:45.449Z,336.00
2018-09-05T06:28:45.425Z,348.00
2018-09-05T06:29:45.449Z,360.00
2018-09-05T06:30:45.660Z,368.00
2018-09-05T06:31:45.476Z,384.00
2018-09-05T06:32:45.495Z,408.00
2018-09-05T06:33:45.512Z,428.00
2018-09-05T06:34:45.618Z,432.00
2018-09-05T06:35:45.564Z,412.00
2018-09-05T06:36:45.628Z,404.00
2018-09-05T06:37:45.579Z,420.00
2018-09-05T06:38:45.596Z,444.00
2018-09-05T06:39:45.612Z,468.00
2018-09-05T06:40:45.639Z,532.00
2018-09-05T06:41:45.644Z,608.00
2018-09-05T06:42:45.663Z,616.00
2018-09-05T06:43:45.685Z,576.00
2018-09-05T06:44:45.698Z,564.00
2018-09-05T06:45:45.711Z,604.00
2018-09-05T06:46:45.727Z,676.00
2018-09-05T06:47:45.748Z,752.00
2018-09-05T06:48:45.764Z,796.00
2018-09-05T06:49:45.785Z,824.00
2018-09-05T06:50:45.800Z,852.00
2018-09-05T06:51:45.816Z,928.00
2018-09-05T06:52:45.828Z,984.00
2018-09-05T06:53:45.842Z,1044.00
2018-09-05T06:54:45.859Z,1104.00
2018-09-05T06:55:45.907Z,1148.00
2018-09-05T06:56:45.895Z,1108.00
2018-09-05T06:57:45.911Z,1020.00
2018-09-05T06:58:45.935Z,948.00
2018-09-05T06:59:45.959Z,952.00
2018-09-05T07:00:45.968Z,1012.00
2018-09-05T07:01:45.982Z,1068.00
2018-09-05T07:02:46.000Z,1148.00
2018-09-05T07:03:46.062Z,1228.00
2018-09-05T07:04:46.035Z,1308.00
2018-09-05T07:05:46.056Z,1336.00
2018-09-05T07:06:46.143Z,1304.00
2018-09-05T07:07:46.094Z,1132.00
2018-09-05T07:08:46.101Z,1092.00
2018-09-05T07:09:46.323Z,996.00
2018-09-05T07:10:46.339Z,924.00
2018-09-05T07:11:46.151Z,920.00
2018-09-05T07:12:46.167Z,968.00
2018-09-05T07:13:46.245Z,1012.00
2018-09-05T07:14:46.207Z,1144.00
2018-09-05T07:15:46.215Z,1264.00
2018-09-05T07:16:46.236Z,1288.00
2018-09-05T07:17:46.255Z,1244.00
2018-09-05T07:18:46.268Z,1232.00
2018-09-05T07:19:46.341Z,1296.00
2018-09-05T07:20:46.299Z,1372.00
2018-09-05T07:21:46.318Z,1448.00
2018-09-05T07:22:46.339Z,1464.00
2018-09-05T07:23:46.350Z,1552.00
2018-09-05T07:24:46.417Z,1644.00
2018-09-05T07:25:46.387Z,1708.00
2018-09-05T07:26:46.403Z,1672.00
2018-09-05T07:27:46.418Z,1628.00
2018-09-05T07:28:46.439Z,1680.00
2018-09-05T07:29:46.455Z,1764.00
2018-09-05T07:30:46.684Z,1768.00
2018-09-05T07:31:46.694Z,1704.00
2018-09-05T07:32:46.510Z,1640.00
2018-09-05T07:33:46.522Z,1568.00
2018-09-05T07:34:46.539Z,1568.00
2018-09-05T07:35:46.681Z,1672.00
2018-09-05T07:36:46.574Z,1788.00
2018-09-05T07:37:46.666Z,1832.00
2018-09-05T07:38:46.610Z,1916.00
2018-09-05T07:39:46.630Z,2236.00
2018-09-05T07:40:46.642Z,2732.00
2018-09-05T07:41:46.658Z,4412.00
2018-09-05T07:42:46.881Z,5008.00
2018-09-05T07:43:46.954Z,5336.00
2018-09-05T07:44:46.713Z,5360.00
2018-09-05T07:45:46.733Z,5236.00
2018-09-05T07:46:46.953Z,4816.00
2018-09-05T07:47:46.967Z,3864.00
2018-09-05T07:48:46.786Z,3224.00
2018-09-05T07:49:46.802Z,2572.00
2018-09-05T07:50:46.881Z,2984.00
2018-09-05T07:51:46.840Z,2524.00
2018-09-05T07:52:46.860Z,2620.00
2018-09-05T07:53:46.869Z,2584.00
2018-09-05T07:54:46.894Z,2440.00
2018-09-05T07:55:46.909Z,2504.00
2018-09-05T07:56:46.923Z,2524.00
2018-09-05T07:57:46.947Z,2508.00
2018-09-05T07:58:46.965Z,2436.00
2018-09-05T07:59:46.978Z,2368.00
2018-09-05T08:00:47.002Z,2240.00
2018-09-05T08:01:47.017Z,2108.00
2018-09-05T08:02:47.040Z,1916.00
2018-09-05T08:03:47.053Z,1744.00
2018-09-05T08:04:47.066Z,1692.00
2018-09-05T08:05:47.085Z,1700.00
2018-09-05T08:06:47.102Z,1712.00
2018-09-05T08:07:47.120Z,1700.00
2018-09-05T08:08:47.161Z,1704.00
2018-09-05T08:09:47.161Z,1736.00
2018-09-05T08:10:47.181Z,1744.00
2018-09-05T08:11:47.296Z,1748.00
2018-09-05T08:12:47.208Z,1688.00
2018-09-05T08:13:47.234Z,1628.00
2018-09-05T08:14:47.261Z,1544.00
2018-09-05T08:15:47.268Z,1484.00
2018-09-05T08:16:47.284Z,1500.00
2018-09-05T08:17:47.301Z,1576.00
2018-09-05T08:18:47.320Z,1732.00
2018-09-05T08:19:47.347Z,1896.00
2018-09-05T08:20:47.357Z,2040.00
2018-09-05T08:21:47.379Z,2044.00
2018-09-05T08:22:47.392Z,2016.00
2018-09-05T08:23:47.408Z,1964.00
2018-09-05T08:24:47.426Z,2012.00
2018-09-05T08:25:47.443Z,2068.00
2018-09-05T08:26:47.463Z,2056.00
2018-09-05T08:27:47.483Z,1960.00
2018-09-05T08:28:47.544Z,2116.00
2018-09-05T08:29:47.517Z,2080.00
2018-09-05T08:30:47.529Z,2296.00
2018-09-05T08:31:47.564Z,2176.00
2018-09-05T08:32:47.568Z,1872.00
2018-09-05T08:33:47.593Z,1728.00
2018-09-05T08:34:47.655Z,1688.00
2018-09-05T08:35:47.958Z,1720.00
2018-09-05T08:36:47.865Z,1772.00
2018-09-05T08:37:47.757Z,1768.00
2018-09-05T08:38:47.714Z,1736.00
2018-09-05T08:39:47.745Z,1684.00
2018-09-05T08:40:47.720Z,1544.00
2018-09-05T08:41:47.750Z,1352.00
2018-09-05T08:42:47.869Z,1220.00
2018-09-05T08:43:47.899Z,1160.00
2018-09-05T08:44:48.126Z,1128.00
2018-09-05T08:45:48.081Z,1132.00
2018-09-05T08:46:47.860Z,1144.00
2018-09-05T08:47:47.893Z,1152.00
2018-09-05T08:48:47.852Z,1168.00
2018-09-05T08:49:47.868Z,1224.00
2018-09-05T08:50:47.892Z,1320.00
2018-09-05T08:51:47.901Z,1448.00
2018-09-05T08:52:47.945Z,1560.00
2018-09-05T08:53:47.937Z,1604.00
2018-09-05T08:54:47.958Z,1596.00
2018-09-05T08:55:48.023Z,1624.00
2018-09-05T08:56:47.997Z,1724.00
2018-09-05T08:57:48.007Z,1868.00
2018-09-05T08:58:48.086Z,2056.00
2018-09-05T08:59:48.047Z,2264.00
2018-09-05T09:00:48.067Z,2416.00
2018-09-05T09:01:48.079Z,2364.00
2018-09-05T09:02:48.097Z,2200.00
2018-09-05T09:03:48.173Z,2144.00
2018-09-05T09:04:48.137Z,2140.00
2018-09-05T09:05:48.148Z,2228.00
2018-09-05T09:06:48.172Z,2372.00
2018-09-05T09:07:48.184Z,2420.00
2018-09-05T09:08:48.208Z,2364.00
2018-09-05T09:09:48.229Z,2356.00
2018-09-05T09:10:48.241Z,2436.00
2018-09-05T09:11:48.326Z,2532.00
2018-09-05T09:12:48.273Z,2556.00
2018-09-05T09:13:48.296Z,2512.00
2018-09-05T09:14:48.320Z,2416.00
2018-09-05T09:15:48.359Z,2332.00
2018-09-05T09:16:48.348Z,2260.00
2018-09-05T09:17:48.371Z,2208.00
2018-09-05T09:18:48.385Z,2188.00
2018-09-05T09:19:48.412Z,2240.00
2018-09-05T09:20:48.422Z,2316.00
2018-09-05T09:21:48.520Z,2408.00
2018-09-05T09:22:48.454Z,2496.00
2018-09-05T09:23:48.479Z,2540.00
2018-09-05T09:24:48.492Z,2528.00
2018-09-05T09:25:48.523Z,2520.00
2018-09-05T09:26:48.532Z,2568.00
2018-09-05T09:27:48.556Z,2724.00
2018-09-05T09:28:48.561Z,2936.00
2018-09-05T09:29:48.585Z,3128.00
2018-09-05T09:30:48.605Z,3280.00
2018-09-05T09:31:48.621Z,3428.00
2018-09-05T09:32:48.637Z,3608.00
2018-09-05T09:33:48.652Z,3764.00
2018-09-05T09:34:48.668Z,3848.00
2018-09-05T09:35:48.693Z,3948.00
2018-09-05T09:36:48.709Z,4120.00
2018-09-05T09:37:48.725Z,4212.00
2018-09-05T09:38:48.753Z,4168.00
2018-09-05T09:39:48.760Z,4084.00
2018-09-05T09:40:48.776Z,4036.00
2018-09-05T09:41:48.793Z,4020.00
2018-09-05T09:42:48.812Z,4028.00
2018-09-05T09:43:48.884Z,4108.00
2018-09-05T09:44:48.952Z,4148.00
2018-09-05T09:45:48.876Z,4008.00
2018-09-05T09:46:48.885Z,3860.00
2018-09-05T09:47:48.907Z,3860.00
2018-09-05T09:48:48.973Z,3964.00
2018-09-05T09:49:48.976Z,4096.00
2018-09-05T09:51:48.981Z,4092.00
2018-09-05T09:52:48.997Z,3924.00
2018-09-05T09:53:49.013Z,3960.00
2018-09-05T09:54:49.032Z,4200.00
2018-09-05T09:55:49.056Z,4644.00
2018-09-05T09:56:49.074Z,5040.00
2018-09-05T09:57:49.092Z,5108.00
2018-09-05T09:58:49.108Z,5144.00
2018-09-05T09:59:49.134Z,5232.00
2018-09-05T10:00:49.146Z,5216.00
2018-09-05T10:01:49.167Z,5060.00
2018-09-05T10:02:49.186Z,4888.00
2018-09-05T10:03:49.338Z,4704.00
2018-09-05T10:04:49.259Z,4676.00
2018-09-05T10:05:49.243Z,4720.00
2018-09-05T10:06:49.331Z,4748.00
2018-09-05T10:07:49.276Z,4744.00
2018-09-05T10:08:49.292Z,4744.00
2018-09-05T10:09:49.461Z,4824.00
2018-09-05T10:10:49.332Z,5032.00
2018-09-05T10:11:49.352Z,5112.00
2018-09-05T10:12:49.373Z,5176.00
2018-09-05T10:13:49.390Z,5240.00
2018-09-05T10:14:49.422Z,5316.00
2018-09-05T10:15:49.453Z,5516.00
2018-09-05T10:16:49.446Z,5904.00
2018-09-05T10:17:49.472Z,6628.00
2018-09-05T10:18:49.493Z,8872.00
2018-09-05T10:19:49.508Z,6560.00
2018-09-05T10:20:49.564Z,5952.00
2018-09-05T10:21:49.544Z,5572.00
2018-09-05T10:22:49.565Z,5232.00
2018-09-05T10:23:49.589Z,5072.00
2018-09-05T10:24:49.607Z,5000.00
2018-09-05T10:25:49.625Z,4936.00
2018-09-05T10:26:49.641Z,4916.00
2018-09-05T10:27:49.657Z,4944.00
2018-09-05T10:28:49.684Z,4944.00
2018-09-05T10:29:49.700Z,4956.00
2018-09-05T10:30:49.723Z,5008.00
2018-09-05T10:31:49.823Z,5096.00
2018-09-05T10:32:49.957Z,5164.00
2018-09-05T10:33:49.981Z,5144.00
2018-09-05T10:34:49.801Z,5100.00
2018-09-05T10:35:49.813Z,5112.00
2018-09-05T10:36:49.843Z,5192.00
2018-09-05T10:37:49.853Z,5320.00
2018-09-05T10:38:49.881Z,5500.00
2018-09-05T10:39:49.897Z,5700.00
2018-09-05T10:40:49.912Z,5960.00
2018-09-05T10:41:49.938Z,6308.00
2018-09-05T10:42:49.951Z,6988.00
2018-09-05T10:43:49.973Z,8308.00
2018-09-05T10:44:49.995Z,14148.00
2018-09-05T10:45:50.035Z,14816.00
2018-09-05T10:46:50.036Z,9480.00
2018-09-05T10:47:50.059Z,10536.00
2018-09-05T10:48:50.070Z,14088.00
2018-09-05T10:49:50.097Z,16512.00
2018-09-05T10:50:50.117Z,17152.00
2018-09-05T10:51:50.202Z,16544.00
2018-09-05T10:52:50.152Z,16032.00
2018-09-05T10:53:50.173Z,17056.00
2018-09-05T10:54:50.193Z,13828.00
2018-09-05T10:55:50.217Z,17152.00
2018-09-05T10:56:50.339Z,9876.00
2018-09-05T10:57:50.301Z,17280.00
2018-09-05T10:58:50.288Z,11208.00
2018-09-05T10:59:50.308Z,13128.00
2018-09-05T11:00:50.326Z,10908.00
2018-09-05T11:01:50.341Z,9204.00
2018-09-05T11:02:50.369Z,7316.00
2018-09-05T11:03:50.401Z,7096.00
2018-09-05T11:04:50.404Z,6920.00
2018-09-05T11:05:50.432Z,7120.00
2018-09-05T11:06:50.448Z,7816.00
2018-09-05T11:07:50.470Z,6248.00
2018-09-05T11:08:50.497Z,5788.00
2018-09-05T11:09:50.516Z,5700.00
2018-09-05T11:10:50.668Z,5612.00
2018-09-05T11:11:50.556Z,5688.00
2018-09-05T11:12:50.578Z,6412.00
2018-09-05T11:13:50.593Z,6424.00
2018-09-05T11:14:50.617Z,14944.00
2018-09-05T11:15:50.637Z,16192.00
2018-09-05T11:16:50.656Z,9088.00
2018-09-05T11:17:50.687Z,8484.00
2018-09-05T11:18:50.704Z,6484.00
2018-09-05T11:19:50.729Z,5776.00
2018-09-05T11:20:50.748Z,5372.00
2018-09-05T11:21:50.768Z,5144.00
2018-09-05T11:22:50.788Z,5000.00
2018-09-05T11:23:50.809Z,4856.00
2018-09-05T11:24:50.829Z,4732.00
2018-09-05T11:25:50.857Z,4564.00
2018-09-05T11:26:50.877Z,4316.00
2018-09-05T11:27:50.892Z,4116.00
2018-09-05T11:28:50.964Z,4056.00
2018-09-05T11:29:50.941Z,4072.00
2018-09-05T11:30:50.961Z,4152.00
2018-09-05T11:31:50.985Z,4320.00
2018-09-05T11:32:50.997Z,4592.00
2018-09-05T11:33:51.029Z,4952.00
2018-09-05T11:34:51.140Z,9700.00
2018-09-05T11:35:51.063Z,7624.00
2018-09-05T11:36:51.122Z,12240.00
2018-09-05T11:37:51.112Z,8340.00
2018-09-05T11:38:51.127Z,12428.00
2018-09-05T11:39:51.148Z,15328.00
2018-09-05T11:40:51.172Z,11416.00
2018-09-05T11:41:51.192Z,17664.00
2018-09-05T11:42:51.212Z,14816.00
2018-09-05T11:43:51.235Z,9516.00
2018-09-05T11:44:51.260Z,9188.00
2018-09-05T11:45:51.277Z,9328.00
2018-09-05T11:46:51.296Z,10896.00
2018-09-05T11:47:51.323Z,12816.00
2018-09-05T11:48:51.336Z,12380.00
2018-09-05T11:49:51.360Z,16096.00
2018-09-05T11:50:51.383Z,16256.00
2018-09-05T11:51:51.402Z,16448.00
2018-09-05T11:52:51.421Z,16672.00
2018-09-05T11:53:51.441Z,11264.00
2018-09-05T11:54:51.460Z,11372.00
2018-09-05T11:55:51.476Z,16960.00
2018-09-05T11:56:51.517Z,16352.00
2018-09-05T11:57:51.522Z,13996.00
2018-09-05T11:58:51.589Z,17280.00
2018-09-05T11:59:51.565Z,8268.00
2018-09-05T12:00:51.584Z,8412.00
2018-09-05T12:01:51.608Z,10148.00
2018-09-05T12:02:51.627Z,12216.00
2018-09-05T12:03:51.652Z,16064.00
2018-09-05T12:04:51.793Z,16000.00
2018-09-05T12:05:51.696Z,13872.00
2018-09-05T12:06:51.716Z,15296.00
2018-09-05T12:07:51.739Z,15104.00
2018-09-05T12:08:51.764Z,15168.00
2018-09-05T12:09:51.779Z,15168.00
2018-09-05T12:10:51.800Z,15200.00
2018-09-05T12:11:51.832Z,14944.00
2018-09-05T12:12:51.844Z,15360.00
2018-09-05T12:13:51.872Z,15648.00
2018-09-05T12:14:51.888Z,15840.00
2018-09-05T12:15:51.911Z,16000.00
2018-09-05T12:16:51.984Z,16320.00
2018-09-05T12:17:51.951Z,16416.00
2018-09-05T12:18:51.980Z,16832.00
2018-09-05T12:19:51.996Z,12656.00
2018-09-05T12:20:52.018Z,16672.00
2018-09-05T12:21:52.090Z,15200.00
2018-09-05T12:22:52.067Z,16864.00
2018-09-05T12:23:52.080Z,12500.00
2018-09-05T12:24:52.104Z,10232.00
2018-09-05T12:25:52.132Z,15488.00
2018-09-05T12:26:52.148Z,15680.00
2018-09-05T12:27:52.164Z,15616.00
2018-09-05T12:28:52.187Z,14264.00
2018-09-05T12:29:52.215Z,15264.00
2018-09-05T12:30:52.223Z,15264.00
2018-09-05T12:31:52.252Z,15200.00
2018-09-05T12:32:52.274Z,15136.00
2018-09-05T12:33:52.291Z,14644.00
2018-09-05T12:34:52.312Z,15104.00
2018-09-05T12:35:52.335Z,15168.00
2018-09-05T12:36:52.351Z,15264.00
2018-09-05T12:37:52.380Z,14696.00
2018-09-05T12:38:52.403Z,14792.00
2018-09-05T12:39:52.420Z,14584.00
2018-09-05T12:40:52.437Z,14416.00